← Previous June 17, 2024 8:31 PM

FTUS43 KDMX 160520
TAFMCW
TAF
KMCW 160520Z 1606/1706 17016G24KT P6SM VCSH BKN070
     FM161200 20016G26KT P6SM BKN150
     FM170100 20010KT P6SM FEW110=